This is the latest recevied weather packets stored in our database for station/object BMCB-29. If no packets are shown the sender has not sent any weather packets the latest 10 day(s).
| Time | Temp. | Humidity | Pressure | Rain* | Wind** | Luminosity | Snow |
|---|---|---|---|---|---|---|---|
| 1777798843 | 13.33° C | 82% | 1015.1 hPa | 0 mm | - | 100 W/m² | - |
| 1777795843 | 15.56° C | 66% | 1014.6 hPa | 0 mm | - | 90 W/m² | - |
| 1777795247 | 15.56° C | 66% | 1014.4 hPa | 0 mm | - | 114 W/m² | - |
| 1777794644 | 15.56° C | 70% | 1014.3 hPa | 0 mm | - | 176 W/m² | - |
| 1777794045 | 15.56° C | 72% | 1014.3 hPa | 0 mm | - | 190 W/m² | - |
| 1777793445 | 15° C | 75% | 1014.3 hPa | 0 mm | - | 168 W/m² | - |
| 1777792244 | 14.44° C | 92% | 1014.2 hPa | 0 mm | - | 156 W/m² | - |
| 1777786839 | 11.11° C | 10% | 1014.2 hPa | 0 mm | - | - | - |
| 1777785642 | 11.11° C | 10% | 1014.3 hPa | 0 mm | - | - | - |
| 1777783841 | 10.56° C | 10% | 1014.5 hPa | 0 mm | - | - | - |
| 1777782041 | 10.56° C | 10% | 1014.4 hPa | 0 mm | - | - | - |
| 1777780243 | 11.11° C | 99% | 1014.6 hPa | 0 mm | - | 0 W/m² | - |
| 1777775442 | 11.67° C | 98% | 1014.8 hPa | 0 mm | - | 0 W/m² | - |
| 1777771844 | 11.67° C | 98% | 1015.2 hPa | 0 mm | - | 0 W/m² | - |
| 1777771244 | 11.67° C | 98% | 1015.3 hPa | 0 mm | - | 0 W/m² | - |
| 1777744847 | 21.67° C | 65% | 1015.5 hPa | 0 mm | - | 46 W/m² | - |
| 1777740647 | 21.67° C | 62% | 1015.9 hPa | 0 mm | - | 94 W/m² | - |
| 1777740045 | 21.67° C | 62% | 1015.9 hPa | 0 mm | - | 100 W/m² | - |
| 1777739447 | 22.22° C | 58% | 1016 hPa | 0 mm | - | 98 W/m² | - |
| 1777735844 | 24.44° C | 49% | 1016.3 hPa | 0 mm | - | 408 W/m² | - |
| 1777732841 | 23.89° C | 55% | 1017.2 hPa | 0 mm | - | 410 W/m² | - |
| 1777715443 | 20.56° C | 68% | 1020.9 hPa | 0 mm | - | 456 W/m² | - |
| 1777713046 | 20° C | 71% | 1021.2 hPa | 0 mm | - | 560 W/m² | - |
| 1777711842 | 18.33° C | 76% | 1021.3 hPa | 0 mm | - | 532 W/m² | - |
| 1777711247 | 17.22° C | 78% | 1021.5 hPa | 0 mm | - | 582 W/m² | - |
* Rain latest hour (hover to see other rain measurements)
** Current wind speed in m/s (hover to see current wind gust speed)